Kirby Field

CKF8 · 安大略, 加拿大

使用的METAR站距离机场28 NM。
罗盘
风向 的 风向 200°
风: 7 kt, 3 beaufort

添加一条跑道以查看侧风和逆风信息。

添置 跑道
0 ft 6.000 12.000 18.000 24.000 30.000
Cloud Cloud
FEW 14.000
Cloud Cloud
FEW 25.000
METAR CYYZ 011300Z 20007KT 15SM FEW140 FEW250 M01/M04 A3040 RMK AC1CI1 AC TR CI TR SLP305

METAR Kirby Field - CKF8

Kirby Field是,加拿大中的小机场。 该机场位于纬度44,13280和经度-79,72500。 该机场的伪ICAO代码为CKF8。 机场在Toronto FIR中。

该航空气象观测是针对Lester B Pearson International Airport在2024年3月1日 08:00, 当地时间进行的。

机场观察

风向为200°,速度为7 kt。

可见度为15 mi。

有几云在14.000 ft的高度 和 几云在25.000 ft的高度。 没有观察到天花板。

温度为-1 °C,阵风为-7 °C。 露点为-4 °C,相对湿度为80%。 海平面上的气压为30,40 inHg (QNH)。

白天

今天,太阳从06:54升起,在18:07降落。 这适用于Kirby Field,世界夏令时可能有所不同。 当地时间与世界标准时间之间的时差为-5 小时。 当前,没有夏令时有效。

公司介绍

我们没有关于这个机场的公司信息。

体会

到Vliegles.nl去找飞行课程,跳伞和其他飞行体验。 浏览页面,了解Kirby Field附近所有可用的活动。 你也可以使用搜索功能来寻找你所在地附近的特定飞行课程、跳伞或其他飞行体验。

乌云

14.000 ft FEW 几云
25.000 ft FEW 几云

温度 & 天气

温度 -1 °C
露点 -4 °C
相对湿度 80%
风寒 -7 °C
Kp-index 0 (0-9)

评论

SLP305海平面压力为30,43 inHg (30,43 inHg)
AC1CI1 AC TR CI TR

白天

日出
06:53
中午
12:30
日落
18:07 (9:01)

小工具

你想在你的网站上有一个关于Kirby Field的当前航空天气(METAR)的小部件吗?

显示HTML代码
?>